Time;durP1;ratioP1;P1;durP2;ratioP2;P2;SDS_P1;SDS_P2;PMS_P1;PMS_P2;Temp;Humidity;BMP_temperature;BMP_pressure;BME280_temperature;BME280_humidity;BME280_pressure;Samples;Min_cycle;Max_cycle;Signal;HPM_P1;HPM_P2
2021/01/20 00:00:37;;;;;;;4.77;1.90;;;6.30;71.70;;;;;;5053457;28;20209;-77
2021/01/20 00:03:03;;;;;;;9.10;2.30;;;6.30;71.70;;;;;;5052487;28;20162;-81
2021/01/20 00:05:28;;;;;;;3.97;1.87;;;6.30;71.70;;;;;;5054028;28;20693;-78
2021/01/20 00:07:54;;;;;;;4.90;1.83;;;6.30;71.50;;;;;;5052457;28;20452;-79
2021/01/20 00:10:20;;;;;;;3.10;2.00;;;6.30;72.40;;;;;;5035558;28;20539;-79
2021/01/20 00:12:48;;;;;;;6.00;2.67;;;6.30;71.40;;;;;;5053599;28;20170;-80
2021/01/20 00:15:19;;;;;;;4.07;1.97;;;6.20;71.40;;;;;;5034511;28;20512;-79
2021/01/20 00:17:45;;;;;;;7.30;2.40;;;6.20;71.60;;;;;;5053279;28;20451;-79
2021/01/20 00:20:11;;;;;;;7.83;2.27;;;6.10;71.20;;;;;;5034619;28;20419;-79
2021/01/20 00:22:37;;;;;;;5.50;2.53;;;6.10;71.00;;;;;;5034607;28;20543;-78
2021/01/20 00:25:03;;;;;;;8.47;2.80;;;6.10;70.90;;;;;;5052362;28;20431;-78
2021/01/20 00:27:29;;;;;;;6.23;2.53;;;6.10;71.10;;;;;;5053342;28;20214;-78
2021/01/20 00:29:55;;;;;;;3.47;1.80;;;6.10;71.30;;;;;;5051255;28;20694;-77
2021/01/20 00:32:20;;;;;;;3.87;1.90;;;6.10;71.40;;;;;;5051640;28;20173;-78
2021/01/20 00:34:47;;;;;;;3.83;2.33;;;6.00;71.50;;;;;;5034493;28;20201;-76
2021/01/20 00:37:12;;;;;;;2.60;2.10;;;6.00;71.60;;;;;;5053319;28;20182;-78
2021/01/20 00:39:38;;;;;;;4.90;1.93;;;5.90;71.80;;;;;;5053217;28;20408;-78
2021/01/20 00:42:03;;;;;;;4.77;1.90;;;5.90;72.00;;;;;;5052455;28;20200;-79
2021/01/20 00:44:29;;;;;;;5.50;3.07;;;5.80;72.00;;;;;;5051500;28;20683;-77
2021/01/20 00:46:55;;;;;;;5.50;2.60;;;5.80;72.30;;;;;;5050964;28;20270;-78
2021/01/20 00:49:20;;;;;;;5.50;2.53;;;5.80;72.30;;;;;;5035160;28;20213;-77
2021/01/20 00:51:46;;;;;;;4.23;2.10;;;5.80;72.50;;;;;;5054590;28;20162;-78
2021/01/20 00:54:12;;;;;;;5.43;2.33;;;5.70;72.90;;;;;;5055724;28;20247;-77
2021/01/20 00:56:37;;;;;;;5.40;2.63;;;5.80;73.30;;;;;;5038334;28;20617;-77
2021/01/20 00:59:03;;;;;;;4.60;2.20;;;5.70;73.30;;;;;;5055795;28;20546;-76
2021/01/20 01:01:30;;;;;;;9.70;2.83;;;5.70;73.50;;;;;;5053151;28;20423;-77
2021/01/20 01:03:55;;;;;;;5.53;2.40;;;5.70;73.60;;;;;;5052742;28;20416;-77
2021/01/20 01:06:21;;;;;;;7.00;3.00;;;5.60;73.70;;;;;;5036190;28;20221;-76
2021/01/20 01:08:48;;;;;;;10.60;2.93;;;5.60;74.70;;;;;;5036897;28;20167;-77
2021/01/20 01:11:14;;;;;;;4.10;2.50;;;5.60;74.10;;;;;;5055345;28;20404;-77
2021/01/20 01:13:50;;;;;;;5.93;2.20;;;5.60;74.20;;;;;;5035932;28;20478;-77
2021/01/20 01:16:51;;;;;;;5.33;2.30;;;5.50;74.40;;;;;;5036750;28;20442;-77
2021/01/20 01:19:32;;;;;;;5.03;2.50;;;5.50;74.70;;;;;;5053400;28;20428;-76
2021/01/20 01:21:57;;;;;;;7.10;2.90;;;5.50;74.90;;;;;;5039490;28;20835;-76
2021/01/20 01:24:25;;;;;;;6.13;2.60;;;5.40;75.10;;;;;;5037502;28;20184;-78
2021/01/20 01:26:51;;;;;;;5.17;3.50;;;5.30;75.20;;;;;;5053960;28;20464;-79
2021/01/20 01:29:17;;;;;;;4.33;2.37;;;5.40;75.60;;;;;;5037028;28;20573;-79
2021/01/20 01:31:52;;;;;;;5.43;4.87;;;5.40;75.20;;;;;;5054226;28;20551;-77
2021/01/20 01:34:18;;;;;;;7.87;2.57;;;5.40;75.00;;;;;;5054435;28;20854;-79
2021/01/20 01:36:44;;;;;;;5.90;2.73;;;5.40;75.00;;;;;;5057080;28;20573;-76
2021/01/20 01:39:30;;;;;;;5.27;3.00;;;5.50;75.00;;;;;;5059027;28;20161;-78
2021/01/20 01:41:55;;;;;;;4.90;2.90;;;5.50;74.90;;;;;;5039425;28;20496;-78
2021/01/20 01:44:21;;;;;;;6.07;2.80;;;5.60;74.90;;;;;;5037229;28;20197;-78
2021/01/20 01:46:53;;;;;;;4.93;2.53;;;5.60;74.60;;;;;;5054417;28;20678;-77
2021/01/20 01:49:29;;;;;;;4.00;2.60;;;5.60;74.20;;;;;;5053377;28;20424;-78
2021/01/20 01:52:00;;;;;;;4.07;1.90;;;5.70;74.20;;;;;;5036782;28;20412;-79
2021/01/20 01:54:35;;;;;;;3.63;2.63;;;5.70;74.10;;;;;;5055745;28;20404;-77
2021/01/20 01:57:07;;;;;;;4.20;2.60;;;5.70;73.80;;;;;;5036137;28;20459;-77
2021/01/20 01:59:38;;;;;;;3.10;1.90;;;5.70;73.80;;;;;;5036329;28;20404;-77
2021/01/20 02:02:06;;;;;;;6.87;2.83;;;5.70;73.80;;;;;;5034942;28;20423;-76
2021/01/20 02:04:36;;;;;;;6.13;2.50;;;5.80;73.80;;;;;;5035050;28;20520;-77
2021/01/20 02:07:10;;;;;;;4.10;2.13;;;5.80;73.40;;;;;;5050896;28;20456;-77
2021/01/20 02:09:37;;;;;;;6.93;2.20;;;5.90;73.20;;;;;;5018585;28;20918;-78
2021/01/20 02:12:22;;;;;;;3.00;1.70;;;5.90;72.60;;;;;;5035459;28;20428;-77
2021/01/20 02:15:08;;;;;;;5.50;1.87;;;6.00;72.60;;;;;;5035833;28;20419;-77
2021/01/20 02:17:41;;;;;;;5.27;2.30;;;6.10;70.80;;;;;;5053641;28;20409;-77
2021/01/20 02:20:48;;;;;;;4.53;1.80;;;6.10;70.20;;;;;;5035773;28;20421;-77
2021/01/20 02:23:18;;;;;;;4.20;2.07;;;6.20;69.60;;;;;;5034166;28;20793;-78
2021/01/20 02:26:11;;;;;;;7.80;1.80;;;6.30;69.30;;;;;;5052303;28;20505;-77
2021/01/20 02:29:06;;;;;;;6.87;2.20;;;6.40;68.90;;;;;;5052728;28;20424;-76
2021/01/20 02:31:39;;;;;;;3.77;2.00;;;6.40;67.90;;;;;;5035198;28;20470;-77
2021/01/20 02:34:09;;;;;;;1.90;1.30;;;6.50;67.70;;;;;;5036399;28;20486;-77
2021/01/20 02:36:39;;;;;;;2.90;1.90;;;6.60;67.40;;;;;;5037296;28;20502;-78
2021/01/20 02:39:32;;;;;;;3.40;2.07;;;6.60;66.70;;;;;;5032450;28;20446;-77
2021/01/20 02:42:18;;;;;;;3.80;2.20;;;6.70;65.90;;;;;;5052810;28;20786;-77
2021/01/20 02:44:50;;;;;;;3.70;1.70;;;6.70;65.70;;;;;;5035844;28;20412;-77
2021/01/20 02:47:39;;;;;;;6.00;2.10;;;6.70;65.60;;;;;;5038101;28;20482;-77
2021/01/20 02:50:10;;;;;;;6.93;2.50;;;6.70;65.50;;;;;;5040899;28;20522;-77
2021/01/20 02:53:04;;;;;;;4.50;2.20;;;6.70;65.80;;;;;;5054262;28;20431;-77
2021/01/20 02:55:55;;;;;;;3.60;2.20;;;6.70;65.70;;;;;;5053020;28;20443;-77
2021/01/20 02:58:44;;;;;;;3.70;2.03;;;6.70;65.80;;;;;;5053349;28;20472;-77
2021/01/20 03:01:33;;;;;;;2.80;1.90;;;6.60;65.70;;;;;;5052516;28;20405;-77
2021/01/20 03:04:00;;;;;;;3.87;2.37;;;6.60;65.90;;;;;;5034441;28;20405;-77
2021/01/20 03:06:28;;;;;;;4.63;2.43;;;6.60;65.90;;;;;;5051364;28;20452;-77
2021/01/20 03:08:54;;;;;;;5.53;2.60;;;6.50;65.40;;;;;;5051589;28;20412;-77
2021/01/20 03:11:20;;;;;;;4.03;2.10;;;6.50;65.60;;;;;;5052366;28;20405;-77
2021/01/20 03:13:47;;;;;;;4.40;2.40;;;6.50;65.50;;;;;;5051361;28;20948;-77
2021/01/20 03:16:14;;;;;;;4.03;2.17;;;6.50;65.50;;;;;;5052304;28;20436;-76
2021/01/20 03:18:40;;;;;;;2.97;2.20;;;6.50;65.30;;;;;;5051713;28;20412;-76
2021/01/20 03:21:06;;;;;;;3.40;2.10;;;6.50;65.50;;;;;;5052418;28;20392;-76
2021/01/20 03:23:31;;;;;;;4.90;2.57;;;6.50;66.40;;;;;;5052036;28;20539;-77
2021/01/20 03:25:57;;;;;;;5.33;2.30;;;6.50;65.70;;;;;;5051623;28;20230;-77
2021/01/20 03:28:25;;;;;;;4.03;2.20;;;6.50;65.80;;;;;;5033899;28;20174;-77
2021/01/20 03:30:51;;;;;;;5.30;2.33;;;6.40;66.00;;;;;;5051985;28;20174;-77
2021/01/20 03:33:17;;;;;;;3.93;2.10;;;6.40;66.10;;;;;;5051962;28;20413;-76
2021/01/20 03:35:43;;;;;;;4.30;2.47;;;6.40;66.10;;;;;;5052292;28;20432;-77
2021/01/20 03:38:09;;;;;;;7.67;2.67;;;6.40;66.20;;;;;;5052120;28;20195;-77
2021/01/20 03:40:36;;;;;;;3.77;2.27;;;6.40;66.40;;;;;;5051932;28;20261;-77
2021/01/20 03:43:01;;;;;;;4.70;2.50;;;6.30;66.60;;;;;;5051874;28;20820;-77
2021/01/20 03:45:27;;;;;;;4.27;2.50;;;6.30;66.90;;;;;;5051727;28;20440;-77
2021/01/20 03:47:52;;;;;;;3.20;2.10;;;6.30;67.10;;;;;;5051081;28;20202;-77
2021/01/20 03:50:18;;;;;;;5.03;2.07;;;6.30;67.20;;;;;;5051938;28;20379;-77
2021/01/20 03:52:44;;;;;;;4.37;2.30;;;6.30;67.20;;;;;;5052236;28;20252;-76
2021/01/20 03:55:10;;;;;;;6.90;3.40;;;6.40;67.20;;;;;;5033926;28;20174;-77
2021/01/20 03:57:35;;;;;;;8.43;2.67;;;6.40;67.10;;;;;;5052142;28;20651;-76
2021/01/20 04:00:01;;;;;;;4.83;2.80;;;6.50;66.90;;;;;;5052983;28;20459;-77
2021/01/20 04:02:27;;;;;;;6.47;2.90;;;6.50;66.60;;;;;;5033298;28;20216;-77
2021/01/20 04:05:05;;;;;;;4.73;2.20;;;6.50;66.40;;;;;;5035638;28;20176;-76
2021/01/20 04:07:31;;;;;;;5.40;3.20;;;6.50;66.40;;;;;;5033113;28;20537;-76
2021/01/20 04:09:56;;;;;;;5.63;2.67;;;6.50;66.30;;;;;;5032989;28;20420;-76
2021/01/20 04:12:22;;;;;;;5.70;2.53;;;6.50;66.40;;;;;;5051950;28;20241;-77
2021/01/20 04:14:48;;;;;;;4.37;2.67;;;6.50;66.50;;;;;;5051380;28;20174;-77
2021/01/20 04:17:13;;;;;;;5.90;2.73;;;6.50;66.80;;;;;;5032926;28;20205;-75
2021/01/20 04:19:39;;;;;;;4.83;3.27;;;6.40;66.80;;;;;;5049651;28;20166;-76
2021/01/20 04:22:04;;;;;;;5.23;2.53;;;6.40;67.00;;;;;;5050802;28;20177;-76
2021/01/20 04:24:30;;;;;;;4.23;2.23;;;6.40;67.10;;;;;;5051498;28;20166;-76
2021/01/20 04:26:56;;;;;;;5.57;2.50;;;6.50;67.10;;;;;;5036798;28;20208;-78
2021/01/20 04:29:21;;;;;;;9.37;2.77;;;6.50;66.90;;;;;;5036964;28;20272;-77
2021/01/20 04:31:47;;;;;;;4.53;2.17;;;6.50;66.80;;;;;;5037291;28;20181;-76
2021/01/20 04:34:12;;;;;;;4.80;2.20;;;6.50;66.70;;;;;;5053479;28;20162;-76
2021/01/20 04:36:38;;;;;;;5.17;2.30;;;6.50;66.70;;;;;;5054296;28;20197;-76
2021/01/20 04:39:04;;;;;;;6.50;2.40;;;6.50;66.60;;;;;;5055041;28;20162;-77
2021/01/20 04:41:32;;;;;;;4.33;2.60;;;6.50;66.60;;;;;;5055856;28;20553;-77
2021/01/20 04:43:58;;;;;;;4.53;2.40;;;6.50;66.60;;;;;;5056093;28;20857;-77
2021/01/20 04:46:24;;;;;;;3.80;2.40;;;6.60;66.70;;;;;;5037589;28;20499;-77
2021/01/20 04:48:54;;;;;;;14.23;3.30;;;6.60;66.70;;;;;;5055548;28;20162;-77
2021/01/20 04:51:22;;;;;;;3.70;2.03;;;6.60;66.60;;;;;;5037822;28;20424;-77
2021/01/20 04:53:52;;;;;;;3.50;2.30;;;6.70;66.60;;;;;;5054948;28;20423;-77
2021/01/20 04:56:19;;;;;;;4.23;2.77;;;6.70;66.30;;;;;;5054597;28;20470;-77
2021/01/20 04:58:45;;;;;;;6.83;3.13;;;6.80;66.20;;;;;;5061507;28;20396;-77
2021/01/20 05:01:11;;;;;;;6.90;2.87;;;6.80;65.80;;;;;;5056472;28;20430;-79
2021/01/20 05:03:41;;;;;;;6.07;2.43;;;6.80;65.50;;;;;;5056886;28;20469;-77
2021/01/20 05:06:11;;;;;;;6.23;2.80;;;6.80;65.50;;;;;;5057391;28;20534;-78
2021/01/20 05:08:37;;;;;;;4.30;2.60;;;6.90;65.60;;;;;;5056516;28;20412;-78
2021/01/20 05:11:02;;;;;;;7.00;3.77;;;6.90;65.70;;;;;;5056723;28;20434;-79
2021/01/20 05:13:32;;;;;;;5.80;2.70;;;6.80;65.60;;;;;;5058676;28;20186;-79
2021/01/20 05:15:58;;;;;;;4.57;2.90;;;6.80;65.90;;;;;;5056869;28;20197;-78
2021/01/20 05:18:24;;;;;;;7.60;3.30;;;6.70;66.10;;;;;;5055057;28;20779;-77
2021/01/20 05:20:50;;;;;;;8.20;2.90;;;6.60;66.40;;;;;;5055908;28;20450;-77
2021/01/20 05:23:16;;;;;;;6.60;3.00;;;6.60;66.70;;;;;;5054392;28;20929;-78
2021/01/20 05:25:44;;;;;;;5.57;2.60;;;6.50;66.70;;;;;;5056666;28;20479;-79
2021/01/20 05:28:27;;;;;;;6.70;3.20;;;6.40;66.60;;;;;;5054609;28;20993;-78
2021/01/20 05:30:57;;;;;;;4.90;3.00;;;6.40;66.60;;;;;;5040583;28;20417;-81
2021/01/20 05:33:36;;;;;;;4.73;2.27;;;6.40;66.70;;;;;;5040771;28;20424;-79
2021/01/20 05:36:11;;;;;;;3.90;2.47;;;6.40;66.70;;;;;;5056515;28;20443;-79
2021/01/20 05:38:38;;;;;;;5.27;2.70;;;6.40;66.70;;;;;;5056092;28;20408;-78
2021/01/20 05:41:19;;;;;;;5.87;2.83;;;6.40;66.30;;;;;;5055121;28;20404;-76
2021/01/20 05:43:46;;;;;;;4.43;2.60;;;6.40;66.30;;;;;;5054367;28;20431;-76
2021/01/20 05:46:12;;;;;;;7.40;2.93;;;6.30;65.90;;;;;;5055046;28;20487;-78
2021/01/20 05:48:48;;;;;;;4.10;2.60;;;6.30;66.00;;;;;;5039636;28;20424;-78
2021/01/20 05:51:14;;;;;;;6.50;3.00;;;6.30;66.20;;;;;;5041123;28;20419;-77
2021/01/20 05:53:53;;;;;;;4.70;2.53;;;6.20;66.40;;;;;;5038539;28;20424;-77
2021/01/20 05:56:30;;;;;;;7.07;3.20;;;6.20;66.70;;;;;;5062302;28;20491;-77
2021/01/20 05:58:57;;;;;;;5.13;2.30;;;6.20;66.80;;;;;;5060619;28;20420;-78
2021/01/20 06:01:23;;;;;;;4.33;2.60;;;6.20;66.80;;;;;;5064174;28;20446;-78
2021/01/20 06:03:50;;;;;;;4.30;2.47;;;6.30;66.80;;;;;;5062606;28;20416;-79
2021/01/20 06:06:16;;;;;;;3.43;2.30;;;6.30;66.90;;;;;;5062871;28;20515;-79
2021/01/20 06:08:43;;;;;;;3.60;2.13;;;6.30;66.70;;;;;;5043381;28;20515;-78
2021/01/20 06:11:08;;;;;;;8.50;3.23;;;6.30;66.60;;;;;;5057917;28;20937;-78
2021/01/20 06:13:35;;;;;;;6.27;3.47;;;6.40;67.40;;;;;;5055262;28;20495;-77
2021/01/20 06:16:39;;;;;;;6.13;2.90;;;6.40;66.40;;;;;;5054650;28;20193;-75
2021/01/20 06:19:09;;;;;;;6.87;3.20;;;6.40;66.30;;;;;;5012466;28;20426;-76
2021/01/20 06:21:40;;;;;;;8.10;2.33;;;6.50;66.30;;;;;;5048452;28;20972;-78
2021/01/20 06:24:27;;;;;;;3.83;2.43;;;6.50;66.30;;;;;;5036270;28;21037;-77
2021/01/20 06:27:00;;;;;;;4.13;2.13;;;6.60;66.30;;;;;;5037387;28;20495;-80
2021/01/20 06:29:29;;;;;;;6.27;2.73;;;6.60;66.30;;;;;;5055628;28;20473;-78
2021/01/20 06:31:57;;;;;;;4.90;2.40;;;6.60;66.20;;;;;;5039128;28;20416;-77
2021/01/20 06:34:23;;;;;;;6.03;2.70;;;6.70;66.40;;;;;;5055914;28;20413;-78
2021/01/20 06:36:49;;;;;;;4.90;2.30;;;6.70;66.40;;;;;;5053453;28;20485;-78
2021/01/20 06:39:27;;;;;;;3.60;2.43;;;6.70;66.50;;;;;;5056418;28;20503;-80
2021/01/20 06:41:54;;;;;;;4.10;2.20;;;6.70;66.50;;;;;;5056598;28;20180;-81
2021/01/20 06:44:20;;;;;;;4.00;2.00;;;6.80;66.30;;;;;;5039636;28;20420;-78
2021/01/20 06:46:58;;;;;;;2.90;2.30;;;6.80;66.20;;;;;;5039898;28;20462;-79
2021/01/20 06:49:24;;;;;;;4.70;2.10;;;6.90;65.90;;;;;;5056132;28;20791;-79
2021/01/20 06:52:09;;;;;;;4.03;2.53;;;6.90;65.60;;;;;;5039346;28;20416;-80
2021/01/20 06:54:42;;;;;;;4.63;2.57;;;7.00;65.50;;;;;;5057030;28;20693;-79
2021/01/20 06:57:30;;;;;;;6.23;2.30;;;7.00;65.20;;;;;;5056604;28;20820;-80
2021/01/20 07:00:08;;;;;;;3.60;2.37;;;7.00;65.00;;;;;;5061892;28;20404;-79
2021/01/20 07:02:34;;;;;;;6.10;2.53;;;7.10;64.80;;;;;;5058238;28;20507;-79
2021/01/20 07:05:00;;;;;;;3.60;2.20;;;7.10;64.50;;;;;;5057383;28;20962;-79
2021/01/20 07:07:56;;;;;;;4.87;2.60;;;7.20;64.30;;;;;;5039322;28;20456;-79
2021/01/20 07:10:30;;;;;;;5.00;2.33;;;7.20;63.90;;;;;;5059754;28;20408;-78
2021/01/20 07:13:10;;;;;;;7.13;2.70;;;7.20;63.70;;;;;;5060910;28;20462;-79
2021/01/20 07:15:37;;;;;;;5.37;2.70;;;7.20;63.50;;;;;;5035312;28;20852;-80
2021/01/20 07:18:04;;;;;;;4.23;2.60;;;7.20;63.40;;;;;;5036855;28;20452;-80
2021/01/20 07:20:30;;;;;;;4.70;1.93;;;7.20;63.40;;;;;;5036667;28;20515;-79
2021/01/20 07:22:56;;;;;;;5.70;2.40;;;7.20;63.30;;;;;;5052932;28;20459;-79
2021/01/20 07:25:22;;;;;;;5.10;2.57;;;7.20;63.40;;;;;;5037141;28;20415;-79
2021/01/20 07:27:52;;;;;;;5.00;2.47;;;7.20;63.30;;;;;;5054689;28;20448;-79
2021/01/20 07:30:19;;;;;;;3.53;2.17;;;7.10;63.40;;;;;;5035927;28;20890;-80
2021/01/20 07:32:45;;;;;;;5.23;2.30;;;7.10;63.30;;;;;;5049555;28;20485;-79
2021/01/20 07:35:18;;;;;;;3.63;2.00;;;7.10;63.00;;;;;;5027980;28;20413;-78
2021/01/20 07:37:45;;;;;;;5.63;2.70;;;7.10;63.20;;;;;;5042596;28;20181;-80
2021/01/20 07:40:11;;;;;;;5.80;2.40;;;7.10;63.00;;;;;;5046736;28;20424;-80
2021/01/20 07:42:40;;;;;;;4.33;2.30;;;7.10;63.20;;;;;;5058319;28;20444;-80
2021/01/20 07:45:08;;;;;;;5.53;2.63;;;7.10;63.20;;;;;;5057243;28;20479;-82
2021/01/20 07:47:46;;;;;;;3.60;2.17;;;7.10;63.10;;;;;;5063339;28;20456;-82
2021/01/20 07:50:13;;;;;;;4.30;2.50;;;7.10;63.20;;;;;;5047377;28;20424;-85
2021/01/20 07:52:39;;;;;;;4.60;2.60;;;7.10;63.20;;;;;;5063502;28;20396;-83
2021/01/20 07:55:15;;;;;;;4.17;2.70;;;7.10;63.20;;;;;;5046256;28;20412;-82
2021/01/20 07:57:41;;;;;;;13.20;3.40;;;7.10;63.20;;;;;;5062388;28;20806;-83
2021/01/20 08:00:09;;;;;;;8.23;2.30;;;7.20;63.20;;;;;;5042077;28;20448;-83
2021/01/20 08:02:48;;;;;;;4.27;2.60;;;7.20;63.30;;;;;;5050847;28;20515;-83
2021/01/20 08:05:14;;;;;;;5.70;2.77;;;7.20;63.20;;;;;;5057324;28;20467;-83
2021/01/20 08:07:40;;;;;;;4.30;2.40;;;7.20;63.20;;;;;;5040676;28;20829;-82
2021/01/20 08:10:26;;;;;;;5.20;2.80;;;7.30;63.20;;;;;;5071494;28;20185;-85
2021/01/20 08:12:52;;;;;;;6.53;2.53;;;7.30;62.70;;;;;;5062919;28;20565;-82
2021/01/20 08:15:19;;;;;;;3.73;2.40;;;7.40;62.70;;;;;;5042155;28;20469;-82
2021/01/20 08:17:46;;;;;;;9.93;2.70;;;7.50;62.20;;;;;;5028821;28;20507;-82
2021/01/20 08:20:12;;;;;;;6.60;2.40;;;7.50;61.20;;;;;;5061319;28;20424;-80
2021/01/20 08:22:44;;;;;;;4.03;2.47;;;7.60;61.00;;;;;;5041304;28;20443;-79
2021/01/20 08:25:10;;;;;;;8.57;2.33;;;7.60;60.20;;;;;;5031334;28;20429;-80
2021/01/20 08:27:37;;;;;;;5.40;3.07;;;7.60;60.20;;;;;;5039134;28;20491;-79
2021/01/20 08:30:05;;;;;;;4.27;2.00;;;7.60;60.00;;;;;;5057107;28;20423;-79
2021/01/20 08:32:31;;;;;;;4.80;3.50;;;7.60;60.00;;;;;;5037620;28;20428;-80
2021/01/20 08:34:58;;;;;;;5.97;2.80;;;7.70;59.90;;;;;;5021280;28;20921;-80
2021/01/20 08:37:35;;;;;;;6.20;2.70;;;7.70;59.30;;;;;;5037517;28;20432;-80
2021/01/20 08:40:04;;;;;;;18.23;3.07;;;7.70;59.40;;;;;;5055230;28;20454;-80
2021/01/20 08:42:36;;;;;;;4.97;2.80;;;7.70;59.50;;;;;;5055133;28;20431;-80
2021/01/20 08:45:05;;;;;;;4.93;2.60;;;7.70;59.50;;;;;;5056339;28;20450;-81
2021/01/20 08:47:32;;;;;;;7.00;2.43;;;7.70;58.80;;;;;;5041405;28;20444;-80
2021/01/20 08:49:58;;;;;;;7.73;3.07;;;7.70;58.90;;;;;;5059475;28;20434;-79
2021/01/20 08:52:23;;;;;;;4.47;2.80;;;7.70;58.90;;;;;;5058347;28;20425;-79
2021/01/20 08:54:50;;;;;;;4.63;2.93;;;7.80;58.90;;;;;;5046858;28;20177;-80
2021/01/20 08:57:19;;;;;;;5.57;2.60;;;7.80;59.00;;;;;;5045225;28;20205;-80
2021/01/20 08:59:58;;;;;;;7.33;2.97;;;7.80;58.80;;;;;;5038502;28;20443;-80
2021/01/20 09:02:24;;;;;;;8.57;2.97;;;7.80;58.50;;;;;;5038137;28;20431;-79
2021/01/20 09:04:50;;;;;;;6.50;2.93;;;7.90;58.60;;;;;;5056636;28;20427;-80
2021/01/20 09:07:16;;;;;;;10.90;3.67;;;7.90;58.30;;;;;;5040731;28;20463;-80
2021/01/20 09:09:43;;;;;;;6.80;3.20;;;7.90;58.10;;;;;;5056427;28;20416;-79
2021/01/20 09:12:09;;;;;;;4.23;2.90;;;8.00;58.10;;;;;;5067592;28;20424;-80
2021/01/20 09:14:35;;;;;;;11.43;3.40;;;8.00;57.40;;;;;;5064749;28;20427;-80
2021/01/20 09:17:01;;;;;;;3.87;2.60;;;8.10;57.50;;;;;;5061383;28;20485;-80
2021/01/20 09:19:27;;;;;;;6.60;3.10;;;8.10;57.60;;;;;;5039756;28;20467;-81
2021/01/20 09:21:53;;;;;;;5.60;2.80;;;8.10;57.00;;;;;;5059148;28;20432;-80
2021/01/20 09:24:19;;;;;;;6.53;3.67;;;8.20;57.10;;;;;;5039091;28;20430;-79
2021/01/20 09:26:45;;;;;;;6.33;3.17;;;8.20;57.00;;;;;;5058245;28;20229;-79
2021/01/20 09:29:10;;;;;;;6.30;3.20;;;8.20;56.60;;;;;;5048519;28;20451;-80
2021/01/20 09:31:36;;;;;;;5.83;3.20;;;8.30;56.40;;;;;;5050123;28;20173;-80
2021/01/20 09:34:02;;;;;;;8.40;3.73;;;8.30;56.10;;;;;;5058687;28;20162;-81
2021/01/20 09:36:27;;;;;;;5.33;3.13;;;8.40;56.30;;;;;;5059781;28;20200;-80
2021/01/20 09:38:53;;;;;;;5.83;3.47;;;8.40;56.30;;;;;;5056959;28;20176;-79
2021/01/20 09:41:19;;;;;;;8.03;3.30;;;8.50;56.10;;;;;;5056845;28;20178;-79
2021/01/20 09:43:45;;;;;;;5.43;3.47;;;8.50;55.70;;;;;;5061758;28;20561;-79
2021/01/20 09:46:11;;;;;;;6.47;3.50;;;8.50;55.40;;;;;;5058961;28;20456;-80
2021/01/20 09:48:37;;;;;;;5.57;2.80;;;8.60;54.80;;;;;;5058851;28;20184;-80
2021/01/20 09:51:03;;;;;;;5.00;2.77;;;8.60;54.50;;;;;;5051230;28;20432;-82
2021/01/20 09:53:29;;;;;;;4.53;2.50;;;8.50;54.60;;;;;;5056675;28;20170;-86
2021/01/20 09:55:54;;;;;;;8.07;2.50;;;8.60;54.30;;;;;;5042457;28;20451;-83
2021/01/20 09:58:20;;;;;;;5.47;2.33;;;8.60;53.70;;;;;;5059182;28;20174;-80
2021/01/20 10:00:45;;;;;;;8.23;2.30;;;8.60;53.50;;;;;;5059745;28;20228;-81
2021/01/20 10:03:11;;;;;;;4.87;2.50;;;8.70;53.20;;;;;;5041717;28;20174;-82
2021/01/20 10:05:37;;;;;;;3.97;2.20;;;8.70;53.30;;;;;;5059924;28;20203;-81
2021/01/20 10:08:06;;;;;;;6.03;2.27;;;8.70;53.00;;;;;;5062148;28;20193;-83
2021/01/20 10:10:31;;;;;;;3.70;2.30;;;8.80;53.20;;;;;;5041026;28;20662;-81
2021/01/20 10:12:57;;;;;;;4.37;2.70;;;8.90;52.70;;;;;;5056039;28;20417;-81
2021/01/20 10:15:23;;;;;;;3.70;2.30;;;8.90;52.60;;;;;;5059928;28;20183;-82
2021/01/20 10:17:51;;;;;;;4.93;2.33;;;9.00;52.70;;;;;;5063995;28;20181;-81
2021/01/20 10:20:17;;;;;;;4.73;3.07;;;9.00;52.10;;;;;;5061416;28;20499;-82
2021/01/20 10:22:43;;;;;;;7.90;3.17;;;9.00;52.70;;;;;;5039064;28;20959;-81
2021/01/20 10:25:09;;;;;;;7.13;2.57;;;9.10;52.60;;;;;;5053240;28;20212;-81
2021/01/20 10:27:35;;;;;;;5.10;2.70;;;9.20;52.80;;;;;;5061885;28;20185;-82
2021/01/20 10:30:00;;;;;;;6.87;2.43;;;9.20;52.30;;;;;;5043667;28;20758;-81
2021/01/20 10:32:26;;;;;;;5.43;3.60;;;9.30;52.20;;;;;;5059078;28;20651;-81
2021/01/20 10:34:51;;;;;;;8.10;2.80;;;9.30;51.90;;;;;;5055412;28;20603;-80
2021/01/20 10:37:17;;;;;;;4.03;2.27;;;9.40;51.70;;;;;;5056404;28;20609;-83
2021/01/20 10:39:45;;;;;;;8.40;2.83;;;9.40;51.50;;;;;;5051801;28;20216;-81
2021/01/20 10:42:10;;;;;;;2.80;1.93;;;9.40;51.50;;;;;;5058979;28;20655;-81
2021/01/20 10:44:36;;;;;;;8.43;2.60;;;9.50;51.20;;;;;;5043281;28;20447;-81
2021/01/20 10:47:02;;;;;;;4.97;3.63;;;9.50;51.00;;;;;;5061640;28;20189;-83
2021/01/20 10:49:27;;;;;;;5.90;2.80;;;9.60;50.70;;;;;;5078603;28;20416;-81
2021/01/20 10:51:53;;;;;;;4.60;2.77;;;9.50;50.40;;;;;;5056045;28;20369;-81
2021/01/20 10:54:19;;;;;;;4.27;2.30;;;9.50;50.30;;;;;;5054622;28;20659;-81
2021/01/20 10:56:44;;;;;;;3.67;2.20;;;9.50;50.70;;;;;;5055229;28;20280;-81
2021/01/20 10:59:10;;;;;;;4.40;2.20;;;9.50;50.60;;;;;;5072320;28;20169;-80
2021/01/20 11:01:37;;;;;;;6.00;2.20;;;9.40;50.40;;;;;;5056656;28;20227;-83
2021/01/20 11:04:03;;;;;;;6.93;2.40;;;9.40;50.80;;;;;;5037144;28;20170;-80
2021/01/20 11:06:28;;;;;;;4.53;2.73;;;9.30;50.70;;;;;;5065528;28;20440;-80
2021/01/20 11:08:56;;;;;;;5.87;2.43;;;9.40;50.70;;;;;;5060936;28;20181;-80
2021/01/20 11:11:22;;;;;;;4.33;2.10;;;9.30;50.60;;;;;;5059851;28;20237;-81
2021/01/20 11:13:47;;;;;;;3.33;2.20;;;9.30;50.70;;;;;;5070763;28;20921;-80
2021/01/20 11:16:13;;;;;;;5.00;2.87;;;9.30;50.60;;;;;;5055047;28;20194;-81
2021/01/20 11:18:39;;;;;;;7.03;2.80;;;9.20;50.70;;;;;;5052887;28;20184;-81
2021/01/20 11:21:05;;;;;;;3.37;2.10;;;9.20;50.50;;;;;;5043629;28;20435;-81
2021/01/20 11:23:35;;;;;;;3.40;2.00;;;9.30;50.70;;;;;;5055937;28;20292;-80
2021/01/20 11:26:04;;;;;;;3.80;2.40;;;9.30;50.70;;;;;;5058014;28;20497;-81
2021/01/20 11:28:30;;;;;;;4.57;3.07;;;9.30;50.60;;;;;;5057826;28;20451;-82
2021/01/20 11:30:57;;;;;;;4.63;2.70;;;9.40;50.70;;;;;;5062005;28;20461;-81
2021/01/20 11:33:23;;;;;;;6.40;2.83;;;9.50;50.80;;;;;;5056827;28;20879;-82
2021/01/20 11:35:48;;;;;;;5.00;2.10;;;9.40;51.00;;;;;;5063927;28;20427;-83
2021/01/20 11:38:14;;;;;;;4.80;2.27;;;9.40;51.40;;;;;;5067277;28;20260;-82
2021/01/20 11:40:39;;;;;;;5.90;2.93;;;9.40;51.60;;;;;;5062028;28;20162;-81
2021/01/20 11:43:06;;;;;;;4.13;2.97;;;9.30;51.60;;;;;;5045648;28;20197;-82
2021/01/20 11:45:37;;;;;;;3.30;2.13;;;9.30;52.00;;;;;;5039729;28;20216;-81
2021/01/20 11:48:05;;;;;;;5.17;3.27;;;9.30;52.20;;;;;;5028854;28;20451;-83
2021/01/20 11:50:31;;;;;;;3.67;2.43;;;9.20;52.20;;;;;;5064185;28;20489;-82
2021/01/20 11:52:57;;;;;;;5.53;2.83;;;9.20;52.30;;;;;;5057631;28;20475;-81
2021/01/20 11:55:23;;;;;;;4.00;2.43;;;9.20;52.50;;;;;;5060278;28;20790;-82
2021/01/20 11:57:50;;;;;;;9.00;2.83;;;9.10;52.40;;;;;;5052850;28;20200;-82
2021/01/20 12:00:16;;;;;;;4.60;2.80;;;9.00;52.70;;;;;;5041401;28;21011;-83
2021/01/20 12:02:42;;;;;;;4.07;2.20;;;9.00;52.70;;;;;;5045171;28;20420;-84
2021/01/20 12:05:11;;;;;;;6.33;2.67;;;9.00;52.80;;;;;;5065326;28;20459;-84
2021/01/20 12:07:37;;;;;;;6.10;2.40;;;8.90;52.90;;;;;;5067071;28;20431;-81
2021/01/20 12:10:04;;;;;;;3.47;2.50;;;8.80;53.10;;;;;;5046134;28;20987;-80
2021/01/20 12:12:30;;;;;;;4.50;2.30;;;8.80;53.40;;;;;;5074500;28;20411;-84
2021/01/20 12:14:55;;;;;;;4.17;2.60;;;8.80;53.50;;;;;;5076899;28;20416;-80
2021/01/20 12:17:21;;;;;;;3.93;2.53;;;8.80;53.60;;;;;;5078352;28;20192;-81
2021/01/20 12:19:47;;;;;;;8.50;4.23;;;8.80;53.60;;;;;;5042017;28;20577;-81
2021/01/20 12:22:12;;;;;;;4.77;2.60;;;8.80;53.70;;;;;;5069569;28;20225;-81
2021/01/20 12:24:38;;;;;;;6.53;3.30;;;8.70;53.80;;;;;;5046268;28;20173;-81
2021/01/20 12:27:04;;;;;;;6.90;2.90;;;8.70;54.00;;;;;;5073680;28;20217;-81
2021/01/20 12:29:29;;;;;;;4.57;2.50;;;8.70;54.20;;;;;;5062594;28;20165;-79
2021/01/20 12:31:55;;;;;;;7.03;2.67;;;8.70;54.30;;;;;;5079900;28;20170;-82
2021/01/20 12:34:21;;;;;;;7.13;2.47;;;8.70;54.40;;;;;;5034779;28;20181;-80
2021/01/20 12:36:48;;;;;;;4.57;2.30;;;8.70;54.50;;;;;;5057672;28;20293;-82
2021/01/20 12:39:14;;;;;;;8.07;3.27;;;8.70;54.70;;;;;;5073676;28;20267;-80
2021/01/20 12:41:40;;;;;;;5.50;2.50;;;8.70;54.80;;;;;;5038556;28;20424;-81
2021/01/20 12:44:06;;;;;;;10.30;3.03;;;8.70;54.80;;;;;;5045360;28;20416;-82
2021/01/20 12:46:32;;;;;;;11.37;3.23;;;8.80;54.90;;;;;;5048010;28;20227;-82
2021/01/20 12:48:58;;;;;;;3.93;2.73;;;8.80;55.50;;;;;;5061106;28;20416;-81
2021/01/20 12:51:23;;;;;;;4.80;2.83;;;8.80;55.00;;;;;;5051769;28;20451;-81
2021/01/20 12:53:49;;;;;;;8.37;4.03;;;8.80;55.10;;;;;;5064456;28;20494;-80
2021/01/20 12:56:15;;;;;;;6.10;2.30;;;8.80;55.20;;;;;;5052759;28;20220;-82
2021/01/20 12:58:41;;;;;;;3.83;2.40;;;8.80;55.20;;;;;;5043324;28;20773;-81
2021/01/20 13:01:06;;;;;;;4.23;2.30;;;8.80;55.10;;;;;;5065612;28;20235;-80
2021/01/20 13:03:32;;;;;;;5.63;2.70;;;8.90;55.20;;;;;;5034623;28;20426;-80
2021/01/20 13:05:58;;;;;;;5.07;2.57;;;8.90;55.20;;;;;;5076422;28;20215;-81